Fredericksville, Pennsylvania
Current Conditions -  °F | °C
As of 7:35 AM on Friday 21 Nov 2014 (Local Time) from KXLL Reporting Station
Clear Clear  
Wind Chill: 18°   Ceiling: Unl
Heat Index: 27°   Visibility: 10mi
Dew Point: 12°   Wind: 8mph
Humidity: 55%   Direction: 270°W
Pressure: 30.27"   Gusts: NA
Location:  40.4939°N, 75.6842°W
Report Text: KXLL 211235Z AUTO 27007KT 10SM CLR M03/M11 A3027 RMK AO2
Loading
Personal Weather Stations






























Interactive Weather Map New forecast layout! Learn more

10-Day Weather Forecast

Advertisements
Track Severe Weather on mobile